createdAt,value
2022-09-20T00:01:40.914Z,100.00
2022-09-20T00:04:53.720Z,100.00
2022-09-20T00:08:05.732Z,100.00
2022-09-20T00:11:20.940Z,100.00
2022-09-20T00:14:33.264Z,100.00
2022-09-20T00:17:45.046Z,100.00
2022-09-20T00:20:58.461Z,100.00
2022-09-20T00:24:11.101Z,100.00
2022-09-20T00:27:23.284Z,100.00
2022-09-20T00:30:35.062Z,100.00
2022-09-20T00:34:01.814Z,100.00
2022-09-20T00:37:14.156Z,100.00
2022-09-20T00:40:28.941Z,100.00
2022-09-20T00:43:46.942Z,100.00
2022-09-20T00:46:59.388Z,100.00
2022-09-20T00:50:21.803Z,100.00
2022-09-20T00:53:38.382Z,100.00
2022-09-20T00:56:50.802Z,100.00
2022-09-20T01:00:02.858Z,100.00
2022-09-20T01:03:17.269Z,100.00
2022-09-20T01:06:30.858Z,100.00
2022-09-20T01:09:44.358Z,100.00
2022-09-20T01:12:58.427Z,100.00
2022-09-20T01:16:12.360Z,100.00
2022-09-20T01:19:29.840Z,100.00
2022-09-20T01:22:48.297Z,100.00
2022-09-20T01:26:28.772Z,100.00
2022-09-20T01:30:12.019Z,100.00
2022-09-20T01:33:31.082Z,100.00
2022-09-20T01:36:48.772Z,100.00
2022-09-20T01:40:10.796Z,100.00
2022-09-20T01:43:31.457Z,100.00
2022-09-20T01:46:47.953Z,100.00
2022-09-20T01:50:07.638Z,100.00
2022-09-20T01:53:59.749Z,100.00
2022-09-20T01:58:09.996Z,100.00
2022-09-20T02:02:13.039Z,100.00
2022-09-20T02:05:56.076Z,100.00
2022-09-20T02:09:46.153Z,100.00
2022-09-20T02:13:04.814Z,100.00
2022-09-20T02:16:51.717Z,100.00
2022-09-20T02:20:22.123Z,100.00
2022-09-20T02:23:48.367Z,100.00
2022-09-20T02:27:10.264Z,100.00
2022-09-20T02:30:37.188Z,100.00
2022-09-20T02:34:31.452Z,100.00
2022-09-20T02:38:40.770Z,100.00
2022-09-20T02:42:07.423Z,100.00
2022-09-20T02:45:25.050Z,100.00
2022-09-20T02:48:42.498Z,100.00
2022-09-20T02:51:59.515Z,100.00
2022-09-20T02:55:14.614Z,100.00
2022-09-20T02:58:43.228Z,100.00
2022-09-20T03:02:04.160Z,100.00
2022-09-20T03:05:24.345Z,100.00
2022-09-20T03:08:44.464Z,100.00
2022-09-20T03:12:05.123Z,100.00
2022-09-20T03:15:27.378Z,100.00
2022-09-20T03:18:48.026Z,100.00
2022-09-20T03:22:08.592Z,100.00
2022-09-20T03:25:49.446Z,100.00
2022-09-20T03:29:09.053Z,100.00
2022-09-20T03:32:33.091Z,100.00
2022-09-20T03:35:58.200Z,100.00
2022-09-20T03:39:34.442Z,100.00
2022-09-20T03:42:51.287Z,100.00
2022-09-20T03:46:22.588Z,100.00
2022-09-20T03:50:01.162Z,100.00
2022-09-20T03:53:40.020Z,100.00
2022-09-20T04:00:08.101Z,100.00
2022-09-20T04:03:38.850Z,100.00
2022-09-20T04:07:08.554Z,100.00
2022-09-20T04:10:40.834Z,100.00
2022-09-20T04:13:59.228Z,100.00
2022-09-20T04:17:21.475Z,100.00
2022-09-20T04:20:44.004Z,100.00
2022-09-20T04:24:03.716Z,100.00
2022-09-20T04:27:23.911Z,100.00
2022-09-20T04:30:42.050Z,100.00
2022-09-20T04:33:57.376Z,100.00
2022-09-20T04:37:31.481Z,100.00
2022-09-20T04:41:16.659Z,100.00
2022-09-20T04:45:08.867Z,100.00
2022-09-20T04:49:10.285Z,100.00
2022-09-20T04:52:55.218Z,100.00
2022-09-20T04:56:14.026Z,100.00
2022-09-20T04:59:34.242Z,100.00
2022-09-20T05:03:25.197Z,100.00
2022-09-20T05:06:57.336Z,100.00
2022-09-20T05:10:41.509Z,100.00
2022-09-20T05:14:18.426Z,100.00
2022-09-20T05:17:47.024Z,100.00
2022-09-20T05:21:15.063Z,100.00
2022-09-20T05:24:46.947Z,100.00
2022-09-20T05:28:06.116Z,100.00
2022-09-20T05:31:23.709Z,100.00
2022-09-20T05:34:42.398Z,100.00
2022-09-20T05:38:02.335Z,100.00
2022-09-20T05:41:23.821Z,100.00
2022-09-20T05:44:44.160Z,100.00
2022-09-20T05:48:03.632Z,100.00
2022-09-20T05:51:24.207Z,100.00
2022-09-20T05:55:18.273Z,100.00
2022-09-20T05:59:11.061Z,100.00
2022-09-20T06:02:35.067Z,100.00
2022-09-20T06:05:54.776Z,100.00
2022-09-20T06:09:41.531Z,100.00
2022-09-20T06:13:01.971Z,100.00
2022-09-20T06:16:22.774Z,100.00
2022-09-20T06:19:45.420Z,100.00
2022-09-20T06:23:00.805Z,100.00
2022-09-20T06:26:19.813Z,100.00
2022-09-20T06:29:37.188Z,100.00
2022-09-20T06:33:04.452Z,100.00
2022-09-20T06:54:28.094Z,100.00
2022-09-20T06:57:55.611Z,100.00
2022-09-20T07:01:11.955Z,100.00
2022-09-20T07:04:25.899Z,100.00
2022-09-20T07:37:32.779Z,100.00
2022-09-20T07:40:43.702Z,100.00
2022-09-20T07:43:57.289Z,100.00
2022-09-20T07:50:25.068Z,100.00
2022-09-20T07:56:52.948Z,100.00
2022-09-20T08:00:04.639Z,100.00
2022-09-20T08:03:18.261Z,100.00
2022-09-20T08:06:31.077Z,100.00
2022-09-20T08:09:42.678Z,100.00
2022-09-20T08:16:15.272Z,100.00
2022-09-20T08:19:28.881Z,100.00
2022-09-20T08:22:43.391Z,100.00
2022-09-20T08:25:54.996Z,100.00
2022-09-20T08:29:08.067Z,100.00
2022-09-20T08:32:19.839Z,100.00
2022-09-20T08:35:31.576Z,100.00
2022-09-20T08:42:02.922Z,100.00
2022-09-20T08:45:33.602Z,100.00
2022-09-20T08:48:38.309Z,100.00
2022-09-20T08:51:51.084Z,100.00
2022-09-20T08:55:08.044Z,100.00
2022-09-20T08:58:19.222Z,100.00
2022-09-20T09:01:33.553Z,100.00
2022-09-20T09:04:46.175Z,100.00
2022-09-20T09:07:58.506Z,100.00
2022-09-20T09:11:17.049Z,100.00
2022-09-20T09:14:54.364Z,100.00
2022-09-20T09:18:06.450Z,100.00
2022-09-20T09:21:25.780Z,98.82
2022-09-20T09:24:37.663Z,89.75
2022-09-20T09:28:01.323Z,90.13
2022-09-20T09:31:30.316Z,91.99
2022-09-20T09:34:42.415Z,89.42
2022-09-20T09:38:02.384Z,84.51
2022-09-20T09:41:29.844Z,82.09
2022-09-20T09:44:41.769Z,76.23
2022-09-20T09:47:53.613Z,69.26
2022-09-20T09:51:20.587Z,68.87
2022-09-20T09:54:36.103Z,64.84
2022-09-20T09:57:54.260Z,62.24
2022-09-20T10:01:11.175Z,62.81
2022-09-20T10:04:28.727Z,66.48
2022-09-20T10:07:45.772Z,68.86
2022-09-20T10:11:08.545Z,66.77
2022-09-20T10:14:33.751Z,68.16
2022-09-20T10:18:03.806Z,73.72
2022-09-20T10:21:26.315Z,79.90
2022-09-20T10:24:48.616Z,89.56
2022-09-20T10:28:11.706Z,95.13
2022-09-20T10:31:35.685Z,99.29
2022-09-20T10:35:18.381Z,100.00
2022-09-20T10:38:35.740Z,100.00
2022-09-20T10:42:13.966Z,100.00
2022-09-20T10:45:59.532Z,100.00
2022-09-20T10:48:49.271Z,100.00
2022-09-20T10:52:19.559Z,100.00
2022-09-20T10:55:46.530Z,100.00
2022-09-20T10:59:28.527Z,100.00
2022-09-20T11:02:53.574Z,100.00
2022-09-20T11:06:17.569Z,100.00
2022-09-20T11:09:33.953Z,100.00
2022-09-20T11:12:51.250Z,100.00
2022-09-20T11:16:09.805Z,100.00
2022-09-20T11:19:27.739Z,100.00
2022-09-20T11:22:48.237Z,100.00
2022-09-20T11:26:04.132Z,100.00
2022-09-20T11:29:23.980Z,100.00
2022-09-20T11:32:42.465Z,100.00
2022-09-20T11:35:59.573Z,100.00
2022-09-20T11:39:17.910Z,95.71
2022-09-20T11:42:34.969Z,93.48
2022-09-20T11:45:46.549Z,88.91
2022-09-20T11:49:03.776Z,91.00
2022-09-20T11:52:48.487Z,79.80
2022-09-20T11:56:05.204Z,83.05
2022-09-20T11:59:28.361Z,90.54
2022-09-20T12:02:45.224Z,91.65
2022-09-20T12:06:04.955Z,87.03
2022-09-20T12:09:32.544Z,85.38
2022-09-20T12:12:45.426Z,82.30
2022-09-20T12:16:06.712Z,82.42
2022-09-20T12:19:38.928Z,77.96
2022-09-20T12:22:50.643Z,72.00
2022-09-20T12:26:14.778Z,77.40
2022-09-20T12:30:20.159Z,78.35
2022-09-20T12:33:35.927Z,75.57
2022-09-20T12:36:50.264Z,73.05
2022-09-20T12:40:03.089Z,68.66
2022-09-20T12:43:25.501Z,68.76
2022-09-20T12:46:59.577Z,69.78
2022-09-20T12:50:34.437Z,74.21
2022-09-20T12:53:46.713Z,73.25
2022-09-20T12:56:58.787Z,73.12
2022-09-20T13:00:23.831Z,74.44
2022-09-20T13:03:39.223Z,78.39
2022-09-20T13:06:51.407Z,71.10
2022-09-20T13:10:03.662Z,72.45
2022-09-20T13:13:35.018Z,76.37
2022-09-20T13:16:56.763Z,71.73
2022-09-20T13:20:11.109Z,72.82
2022-09-20T13:23:30.442Z,73.87
2022-09-20T13:29:48.607Z,81.30
2022-09-20T13:33:00.660Z,80.40
2022-09-20T13:36:14.509Z,81.02
2022-09-20T13:39:41.246Z,83.34
2022-09-20T13:43:19.674Z,83.17
2022-09-20T13:46:17.240Z,86.29
2022-09-20T13:49:29.034Z,83.93
2022-09-20T13:52:50.760Z,79.89
2022-09-20T13:56:03.430Z,75.01
2022-09-20T14:02:27.438Z,77.76
2022-09-20T14:11:40.972Z,77.28
2022-09-20T14:14:54.957Z,80.78
2022-09-20T14:18:10.893Z,79.91
2022-09-20T14:21:28.519Z,79.30
2022-09-20T14:27:43.215Z,80.09
2022-09-20T14:30:55.297Z,79.44
2022-09-20T14:34:09.682Z,80.83
2022-09-20T14:37:26.862Z,79.25
2022-09-20T14:43:42.319Z,80.14
2022-09-20T14:46:54.673Z,82.02
2022-09-20T14:50:06.534Z,79.23
2022-09-20T14:53:38.391Z,80.96
2022-09-20T14:56:57.107Z,82.53
2022-09-20T15:00:15.206Z,84.11
2022-09-20T15:03:33.264Z,85.74
2022-09-20T15:06:46.110Z,87.04
2022-09-20T15:09:59.067Z,85.44
2022-09-20T15:13:12.718Z,86.27
2022-09-20T15:16:26.255Z,86.50
2022-09-20T15:19:40.664Z,87.56
2022-09-20T15:22:53.616Z,90.33
2022-09-20T15:26:05.922Z,89.21
2022-09-20T15:29:22.158Z,88.54
2022-09-20T15:32:33.760Z,87.45
2022-09-20T15:35:46.965Z,87.02
2022-09-20T15:39:00.956Z,86.96
2022-09-20T15:42:13.191Z,87.63
2022-09-20T15:45:27.301Z,86.56
2022-09-20T15:48:40.244Z,88.93
2022-09-20T15:51:52.964Z,89.87
2022-09-20T15:55:05.131Z,86.06
2022-09-20T15:58:17.212Z,86.00
2022-09-20T16:01:29.860Z,86.37
2022-09-20T16:04:41.914Z,87.54
2022-09-20T16:07:53.729Z,87.65
2022-09-20T16:11:06.891Z,88.25
2022-09-20T16:14:19.702Z,87.85
2022-09-20T16:17:43.299Z,89.01
2022-09-20T16:20:55.026Z,90.22
2022-09-20T16:24:08.050Z,91.14
2022-09-20T16:27:20.262Z,92.11
2022-09-20T16:30:33.082Z,93.17
2022-09-20T16:33:45.296Z,93.89
2022-09-20T16:36:59.879Z,96.16
2022-09-20T16:40:16.216Z,97.17
2022-09-20T16:43:29.894Z,98.30
2022-09-20T16:46:44.733Z,99.49
2022-09-20T16:49:58.434Z,100.00
2022-09-20T16:53:12.457Z,100.00
2022-09-20T16:56:31.122Z,100.00
2022-09-20T16:59:43.260Z,100.00
2022-09-20T17:02:56.197Z,100.00
2022-09-20T17:06:12.447Z,100.00
2022-09-20T17:09:25.556Z,100.00
2022-09-20T17:12:40.444Z,100.00
2022-09-20T17:15:53.647Z,100.00
2022-09-20T17:19:09.590Z,100.00
2022-09-20T17:22:22.913Z,100.00
2022-09-20T17:25:35.863Z,100.00
2022-09-20T17:28:51.504Z,100.00
2022-09-20T17:32:07.721Z,100.00
2022-09-20T17:35:20.026Z,100.00
2022-09-20T17:38:33.361Z,100.00
2022-09-20T17:41:47.595Z,100.00
2022-09-20T17:44:59.969Z,100.00
2022-09-20T17:48:11.902Z,100.00
2022-09-20T17:51:25.913Z,100.00
2022-09-20T17:54:37.611Z,100.00
2022-09-20T17:57:49.618Z,100.00
2022-09-20T18:01:12.764Z,100.00
2022-09-20T18:04:25.306Z,100.00
2022-09-20T18:07:37.134Z,100.00
2022-09-20T18:11:00.845Z,100.00
2022-09-20T18:14:14.553Z,100.00
2022-09-20T18:17:26.624Z,100.00
2022-09-20T18:20:38.308Z,100.00
2022-09-20T18:23:53.759Z,100.00
2022-09-20T18:27:06.270Z,100.00
2022-09-20T18:30:21.457Z,100.00
2022-09-20T18:33:38.258Z,100.00
2022-09-20T18:39:55.546Z,100.00
2022-09-20T18:43:11.177Z,100.00
2022-09-20T18:46:25.267Z,100.00
2022-09-20T18:49:38.409Z,100.00
2022-09-20T18:52:51.307Z,100.00
2022-09-20T18:56:19.552Z,100.00
2022-09-20T18:59:33.567Z,100.00
2022-09-20T19:03:09.454Z,100.00
2022-09-20T19:06:24.628Z,100.00
2022-09-20T19:09:45.686Z,100.00
2022-09-20T19:13:05.123Z,100.00
2022-09-20T19:16:38.534Z,100.00
2022-09-20T19:19:56.968Z,100.00
2022-09-20T19:23:25.828Z,100.00
2022-09-20T19:26:42.555Z,100.00
2022-09-20T19:29:56.090Z,100.00
2022-09-20T19:33:14.685Z,100.00
2022-09-20T19:36:38.808Z,100.00
2022-09-20T19:40:20.016Z,100.00
2022-09-20T19:44:01.298Z,100.00
2022-09-20T19:47:29.226Z,100.00
2022-09-20T19:50:48.454Z,100.00
2022-09-20T19:54:02.945Z,100.00
2022-09-20T19:57:21.771Z,100.00
2022-09-20T20:00:36.928Z,100.00
2022-09-20T20:03:50.638Z,100.00
2022-09-20T20:07:10.204Z,100.00
2022-09-20T20:10:30.456Z,100.00
2022-09-20T20:14:02.980Z,100.00
2022-09-20T20:17:28.314Z,100.00
2022-09-20T20:20:48.359Z,100.00
2022-09-20T20:24:15.633Z,100.00
2022-09-20T20:27:31.494Z,100.00
2022-09-20T20:30:43.461Z,100.00
2022-09-20T20:33:55.561Z,100.00
2022-09-20T20:37:07.504Z,100.00
2022-09-20T20:40:23.436Z,100.00
2022-09-20T20:43:36.171Z,100.00
2022-09-20T20:46:47.834Z,100.00
2022-09-20T20:49:59.869Z,100.00
2022-09-20T20:53:11.604Z,100.00
2022-09-20T20:56:26.429Z,100.00
2022-09-20T20:59:38.138Z,100.00
2022-09-20T21:02:50.212Z,100.00
2022-09-20T21:06:04.464Z,100.00
2022-09-20T21:09:17.336Z,100.00
2022-09-20T21:12:31.135Z,100.00
2022-09-20T21:15:43.321Z,100.00
2022-09-20T21:18:56.759Z,100.00
2022-09-20T21:22:09.708Z,100.00
2022-09-20T21:25:23.677Z,100.00
2022-09-20T21:28:40.118Z,100.00
2022-09-20T21:31:59.779Z,100.00
2022-09-20T21:35:14.527Z,100.00
2022-09-20T21:38:28.112Z,100.00
2022-09-20T21:41:42.345Z,100.00
2022-09-20T21:44:54.093Z,100.00
2022-09-20T21:48:07.936Z,100.00
2022-09-20T21:51:22.647Z,100.00
2022-09-20T21:54:34.499Z,100.00
2022-09-20T21:57:46.504Z,100.00
2022-09-20T22:01:06.357Z,100.00
2022-09-20T22:04:19.252Z,100.00
2022-09-20T22:07:31.017Z,100.00
2022-09-20T22:10:42.769Z,100.00
2022-09-20T22:13:56.581Z,100.00
2022-09-20T22:17:08.186Z,100.00
2022-09-20T22:20:20.280Z,100.00
2022-09-20T22:23:31.908Z,100.00
2022-09-20T22:26:46.158Z,100.00
2022-09-20T22:30:00.421Z,100.00
2022-09-20T22:33:12.287Z,100.00
2022-09-20T22:36:27.083Z,100.00
2022-09-20T22:39:38.805Z,100.00
2022-09-20T22:42:50.459Z,100.00
2022-09-20T22:46:10.682Z,100.00
2022-09-20T22:49:22.536Z,100.00
2022-09-20T22:52:34.180Z,100.00
2022-09-20T22:55:45.760Z,100.00
2022-09-20T22:59:00.259Z,100.00
2022-09-20T23:02:12.447Z,100.00
2022-09-20T23:05:24.414Z,100.00
2022-09-20T23:08:37.694Z,100.00
2022-09-20T23:11:50.660Z,100.00
2022-09-20T23:15:02.158Z,100.00
2022-09-20T23:18:16.095Z,100.00
2022-09-20T23:21:28.581Z,100.00
2022-09-20T23:24:40.458Z,100.00
2022-09-20T23:27:52.009Z,100.00
2022-09-20T23:31:09.076Z,100.00
2022-09-20T23:34:19.624Z,100.00
2022-09-20T23:37:31.194Z,100.00
2022-09-20T23:40:43.469Z,100.00
2022-09-20T23:43:55.846Z,100.00
2022-09-20T23:47:07.559Z,100.00
2022-09-20T23:50:19.215Z,100.00
2022-09-20T23:53:30.989Z,100.00
2022-09-20T23:56:42.851Z,100.00
2022-09-20T23:59:54.529Z,100.00
